Terminal Aerodrome Forecast
Issued by NWS Cleveland, OH

Home | Current Version | Previous Version | Graphics & Text | Print | Product List | Glossary Off
Versions: 1 2 3 4 5 6 7 8 9 10 11 12 13 14 15 16 17 18 19 20 21 22 23 24 25 26 27 28 29 30

000
FTUS41 KCLE 041451 AAB
TAFCLE
TAF AMD
KCLE 041451Z 0415/0518 18010KT P6SM SCT060 BKN100
     FM041700 18010KT P6SM VCSH OVC050
     FM042000 22005KT 5SM -SHRA OVC035
      TEMPO 0420/0422 01015KT 3SM TSRA OVC025CB
     FM042200 04007KT 5SM -SHRA BR OVC025
     FM050200 04007KT P6SM OVC015=

USA.gov is the U.S. government's official web portal to all federal, state and local government web resources and services.